createdAt,value
2024-02-24T00:00:36.575Z,17.67
2024-02-24T00:03:24.839Z,17.45
2024-02-24T00:05:53.489Z,16.02
2024-02-24T00:08:21.537Z,16.85
2024-02-24T00:10:50.162Z,17.10
2024-02-24T00:13:18.175Z,16.02
2024-02-24T00:15:46.659Z,15.95
2024-02-24T00:18:14.959Z,16.20
2024-02-24T00:20:43.534Z,15.68
2024-02-24T00:26:18.252Z,16.25
2024-02-24T00:28:47.005Z,16.45
2024-02-24T00:31:15.173Z,16.05
2024-02-24T00:33:44.804Z,16.30
2024-02-24T00:36:13.068Z,16.30
2024-02-24T00:38:41.516Z,14.95
2024-02-24T00:41:09.518Z,17.08
2024-02-24T00:43:37.980Z,15.93
2024-02-24T00:46:06.080Z,15.55
2024-02-24T00:48:34.543Z,16.48
2024-02-24T00:51:02.487Z,14.98
2024-02-24T00:53:30.912Z,15.02
2024-02-24T00:55:58.985Z,15.73
2024-02-24T00:58:27.296Z,14.02
2024-02-24T01:00:55.313Z,14.88
2024-02-24T01:03:23.609Z,15.00
2024-02-24T01:05:51.859Z,14.10
2024-02-24T01:08:20.573Z,15.13
2024-02-24T01:10:49.303Z,15.00
2024-02-24T01:13:17.758Z,14.25
2024-02-24T01:15:45.872Z,15.05
2024-02-24T01:18:14.540Z,14.00
2024-02-24T01:20:42.841Z,14.50
2024-02-24T01:23:11.168Z,14.73
2024-02-24T01:25:39.285Z,13.77
2024-02-24T01:28:07.492Z,14.57
2024-02-24T01:30:38.496Z,14.40
2024-02-24T01:33:07.347Z,14.35
2024-02-24T01:35:36.960Z,14.48
2024-02-24T01:38:09.023Z,13.32
2024-02-24T01:40:36.998Z,12.45
2024-02-24T01:43:30.791Z,13.65
2024-02-24T01:45:59.061Z,13.32
2024-02-24T01:48:27.458Z,13.20
2024-02-24T01:50:56.321Z,13.18
2024-02-24T01:53:25.675Z,14.23
2024-02-24T01:55:55.313Z,13.63
2024-02-24T01:58:25.166Z,13.77
2024-02-24T02:00:56.231Z,13.70
2024-02-24T02:03:24.973Z,13.77
2024-02-24T02:05:52.996Z,14.93
2024-02-24T02:08:21.570Z,14.57
2024-02-24T02:10:56.558Z,14.90
2024-02-24T02:13:25.554Z,14.50
2024-02-24T02:15:55.614Z,15.27
2024-02-24T02:18:24.245Z,14.90
2024-02-24T02:21:12.701Z,14.93
2024-02-24T02:23:41.207Z,15.20
2024-02-24T02:26:09.170Z,14.85
2024-02-24T02:28:37.522Z,15.57
2024-02-24T02:31:05.431Z,14.95
2024-02-24T02:33:34.347Z,14.95
2024-02-24T02:36:03.226Z,14.48
2024-02-24T02:38:31.591Z,14.45
2024-02-24T02:40:59.841Z,14.32
2024-02-24T02:43:28.561Z,14.95
2024-02-24T02:45:56.519Z,14.93
2024-02-24T02:48:24.989Z,14.57
2024-02-24T02:50:53.058Z,14.68
2024-02-24T02:53:21.729Z,15.85
2024-02-24T02:55:49.641Z,15.30
2024-02-24T02:58:18.087Z,15.85
2024-02-24T03:00:48.567Z,15.50
2024-02-24T03:03:19.748Z,16.58
2024-02-24T03:05:47.820Z,16.90
2024-02-24T03:08:16.134Z,16.05
2024-02-24T03:10:44.524Z,17.05
2024-02-24T03:13:13.430Z,16.95
2024-02-24T03:15:41.396Z,16.50
2024-02-24T03:18:09.795Z,16.33
2024-02-24T03:20:38.826Z,17.48
2024-02-24T03:23:08.022Z,18.40
2024-02-24T03:25:36.259Z,18.73
2024-02-24T03:28:05.593Z,18.08
2024-02-24T03:30:33.486Z,18.70
2024-02-24T03:33:01.955Z,18.45
2024-02-24T03:35:30.047Z,18.92
2024-02-24T03:37:59.456Z,20.13
2024-02-24T03:40:27.447Z,19.58
2024-02-24T03:42:55.707Z,20.00
2024-02-24T03:45:23.826Z,20.88
2024-02-24T03:47:52.959Z,22.05
2024-02-24T03:50:21.154Z,20.63
2024-02-24T03:52:49.617Z,21.83
2024-02-24T03:55:17.713Z,20.73
2024-02-24T03:57:48.789Z,19.98
2024-02-24T04:00:22.082Z,21.20
2024-02-24T04:05:30.707Z,21.15
2024-02-24T04:08:03.444Z,21.75
2024-02-24T04:10:35.161Z,21.50
2024-02-24T04:13:05.450Z,21.25
2024-02-24T04:15:33.535Z,21.30
2024-02-24T04:18:02.426Z,21.13
2024-02-24T04:20:30.750Z,22.23
2024-02-24T04:22:59.113Z,22.15
2024-02-24T04:25:27.164Z,22.08
2024-02-24T04:27:55.329Z,21.33
2024-02-24T04:30:23.328Z,22.33
2024-02-24T04:32:51.666Z,21.42
2024-02-24T04:35:19.962Z,22.95
2024-02-24T04:37:48.228Z,22.77
2024-02-24T04:40:16.672Z,21.90
2024-02-24T04:42:46.260Z,21.92
2024-02-24T04:45:14.587Z,22.45
2024-02-24T04:47:43.408Z,21.85
2024-02-24T04:50:11.617Z,21.55
2024-02-24T04:52:39.985Z,20.17
2024-02-24T04:55:08.398Z,20.17
2024-02-24T04:57:36.546Z,18.85
2024-02-24T05:00:04.977Z,19.40
2024-02-24T05:02:33.758Z,19.45
2024-02-24T05:05:01.853Z,19.25
2024-02-24T05:07:31.169Z,19.25
2024-02-24T05:09:59.187Z,19.25
2024-02-24T05:12:27.436Z,19.13
2024-02-24T05:14:55.770Z,18.95
2024-02-24T05:17:24.091Z,17.90
2024-02-24T05:19:52.986Z,19.25
2024-02-24T05:22:21.243Z,18.83
2024-02-24T05:24:49.664Z,18.73
2024-02-24T05:27:19.711Z,18.42
2024-02-24T05:29:48.231Z,18.77
2024-02-24T05:32:18.410Z,18.25
2024-02-24T05:34:46.518Z,18.38
2024-02-24T05:37:15.357Z,18.27
2024-02-24T05:39:43.405Z,17.55
2024-02-24T05:42:11.808Z,18.63
2024-02-24T05:44:39.878Z,17.58
2024-02-24T05:47:08.695Z,17.77
2024-02-24T05:49:36.686Z,17.67
2024-02-24T05:52:05.791Z,19.30
2024-02-24T05:54:33.878Z,19.35
2024-02-24T05:57:05.983Z,19.50
2024-02-24T05:59:33.981Z,19.30
2024-02-24T06:02:02.487Z,17.98
2024-02-24T06:04:31.036Z,18.05
2024-02-24T06:06:59.422Z,17.20
2024-02-24T06:09:27.584Z,17.02
2024-02-24T06:11:55.958Z,16.60
2024-02-24T06:14:24.223Z,16.25
2024-02-24T06:16:52.564Z,15.48
2024-02-24T06:19:21.354Z,15.50
2024-02-24T06:21:49.704Z,15.68
2024-02-24T06:24:17.795Z,16.42
2024-02-24T06:26:46.284Z,16.55
2024-02-24T06:29:17.475Z,21.13
2024-02-24T06:31:45.917Z,17.13
2024-02-24T06:34:13.813Z,16.60
2024-02-24T06:36:42.322Z,17.55
2024-02-24T06:39:10.191Z,18.50
2024-02-24T06:41:38.846Z,18.98
2024-02-24T06:44:07.923Z,19.98
2024-02-24T06:46:36.288Z,18.73
2024-02-24T06:49:04.617Z,18.25
2024-02-24T06:51:33.134Z,18.58
2024-02-24T06:54:01.106Z,17.80
2024-02-24T06:56:29.594Z,18.15
2024-02-24T06:59:00.074Z,18.13
2024-02-24T07:01:28.457Z,18.90
2024-02-24T07:03:59.099Z,18.02
2024-02-24T07:06:30.590Z,18.33
2024-02-24T07:08:58.866Z,17.88
2024-02-24T07:11:30.297Z,17.95
2024-02-24T07:13:58.451Z,18.60
2024-02-24T07:16:28.970Z,18.98
2024-02-24T07:18:57.101Z,17.48
2024-02-24T07:21:26.057Z,18.48
2024-02-24T07:23:57.028Z,17.90
2024-02-24T07:26:25.457Z,16.95
2024-02-24T07:28:53.341Z,16.73
2024-02-24T07:31:21.941Z,15.75
2024-02-24T07:33:49.991Z,15.98
2024-02-24T08:42:19.147Z,13.63
2024-02-24T08:44:53.729Z,14.82
2024-02-24T08:47:25.984Z,14.00
2024-02-24T08:49:58.250Z,14.20
2024-02-24T08:52:35.651Z,15.43
2024-02-24T08:55:12.296Z,13.77
2024-02-24T08:57:40.166Z,13.68
2024-02-24T09:00:10.133Z,14.00
2024-02-24T09:02:38.366Z,13.05
2024-02-24T09:05:07.517Z,13.48
2024-02-24T09:07:35.644Z,13.13
2024-02-24T09:10:07.086Z,14.70
2024-02-24T09:12:36.214Z,14.13
2024-02-24T09:15:05.254Z,13.95
2024-02-24T09:17:33.455Z,14.10
2024-02-24T09:20:02.600Z,13.98
2024-02-24T09:22:32.329Z,13.82
2024-02-24T09:25:00.626Z,14.75
2024-02-24T09:27:28.933Z,14.30
2024-02-24T09:29:57.267Z,13.30
2024-02-24T09:32:25.312Z,13.98
2024-02-24T09:34:53.725Z,14.35
2024-02-24T09:37:21.714Z,13.98
2024-02-24T09:39:50.316Z,13.50
2024-02-24T09:42:18.188Z,14.15
2024-02-24T09:44:46.570Z,13.85
2024-02-24T09:47:14.977Z,14.43
2024-02-24T09:49:44.911Z,13.98
2024-02-24T09:52:12.936Z,14.90
2024-02-24T09:54:41.197Z,15.15
2024-02-24T09:57:11.215Z,14.88
2024-02-24T09:59:39.739Z,14.82
2024-02-24T10:02:07.717Z,15.20
2024-02-24T10:04:36.064Z,14.95
2024-02-24T10:07:22.829Z,15.27
2024-02-24T10:09:51.278Z,14.25
2024-02-24T10:12:19.325Z,14.68
2024-02-24T10:14:50.306Z,14.45
2024-02-24T10:17:18.966Z,13.02
2024-02-24T10:19:47.937Z,13.65
2024-02-24T10:22:19.075Z,13.35
2024-02-24T10:24:47.639Z,14.02
2024-02-24T10:27:18.614Z,13.85
2024-02-24T10:29:54.091Z,16.70
2024-02-24T10:32:23.874Z,17.48
2024-02-24T10:34:54.082Z,17.27
2024-02-24T10:37:22.367Z,16.42
2024-02-24T10:39:51.453Z,16.67
2024-02-24T10:42:23.837Z,15.93
2024-02-24T10:44:53.549Z,15.85
2024-02-24T10:47:22.029Z,16.60
2024-02-24T10:49:50.652Z,17.20
2024-02-24T10:52:20.624Z,17.90
2024-02-24T10:54:51.638Z,17.13
2024-02-24T10:57:21.150Z,15.95
2024-02-24T10:59:49.883Z,17.52
2024-02-24T11:02:18.612Z,16.20
2024-02-24T11:04:47.036Z,16.27
2024-02-24T11:07:20.022Z,15.18
2024-02-24T11:09:53.201Z,16.48
2024-02-24T11:12:25.363Z,15.27
2024-02-24T11:14:56.124Z,15.15
2024-02-24T11:17:53.701Z,15.77
2024-02-24T11:20:41.331Z,14.20
2024-02-24T11:23:27.898Z,15.07
2024-02-24T11:26:17.759Z,16.83
2024-02-24T11:29:00.224Z,15.43
2024-02-24T11:31:35.859Z,15.20
2024-02-24T11:34:07.524Z,16.10
2024-02-24T11:36:39.531Z,15.25
2024-02-24T11:39:09.943Z,15.32
2024-02-24T11:41:38.803Z,15.13
2024-02-24T11:44:10.046Z,16.15
2024-02-24T11:46:38.464Z,15.93
2024-02-24T11:49:06.592Z,15.10
2024-02-24T11:51:36.090Z,14.35
2024-02-24T11:54:05.175Z,14.75
2024-02-24T11:56:34.004Z,13.93
2024-02-24T11:59:02.591Z,13.82
2024-02-24T12:01:31.205Z,14.20
2024-02-24T12:04:01.088Z,14.20
2024-02-24T12:06:32.337Z,15.30
2024-02-24T12:09:01.930Z,14.88
2024-02-24T12:11:30.742Z,15.65
2024-02-24T12:13:58.748Z,13.95
2024-02-24T12:16:29.261Z,15.30
2024-02-24T12:18:59.105Z,14.68
2024-02-24T12:21:29.031Z,13.55
2024-02-24T12:24:00.818Z,14.23
2024-02-24T12:26:29.481Z,14.88
2024-02-24T12:28:57.639Z,13.45
2024-02-24T12:31:26.287Z,14.55
2024-02-24T12:33:54.460Z,14.10
2024-02-24T12:36:26.265Z,12.93
2024-02-24T12:38:54.302Z,13.98
2024-02-24T12:41:22.959Z,12.93
2024-02-24T12:43:51.105Z,13.52
2024-02-24T12:46:23.870Z,13.65
2024-02-24T12:48:52.500Z,15.50
2024-02-24T12:51:22.306Z,13.15
2024-02-24T12:53:50.501Z,13.38
2024-02-24T12:56:18.983Z,15.90
2024-02-24T12:58:47.256Z,15.55
2024-02-24T13:01:16.094Z,13.73
2024-02-24T13:03:44.314Z,14.63
2024-02-24T13:06:12.942Z,12.40
2024-02-24T13:08:41.191Z,13.38
2024-02-24T13:11:10.568Z,12.35
2024-02-24T13:13:38.722Z,11.70
2024-02-24T13:16:07.019Z,12.90
2024-02-24T13:18:35.924Z,11.90
2024-02-24T13:21:04.782Z,11.00
2024-02-24T13:23:33.309Z,11.98
2024-02-24T13:26:01.655Z,11.70
2024-02-24T13:28:29.631Z,13.93
2024-02-24T13:30:57.901Z,14.38
2024-02-24T13:33:26.120Z,13.77
2024-02-24T13:35:54.751Z,13.52
2024-02-24T13:38:22.757Z,15.07
2024-02-24T13:40:51.087Z,15.60
2024-02-24T13:43:19.292Z,15.02
2024-02-24T13:45:47.672Z,15.30
2024-02-24T13:48:16.022Z,17.25
2024-02-24T13:50:44.376Z,15.88
2024-02-24T13:53:12.754Z,15.98
2024-02-24T13:55:41.426Z,15.75
2024-02-24T13:58:09.510Z,15.45
2024-02-24T14:00:37.875Z,14.65
2024-02-24T14:03:06.164Z,14.05
2024-02-24T14:05:34.900Z,13.63
2024-02-24T14:08:04.575Z,14.07
2024-02-24T14:10:34.818Z,13.75
2024-02-24T14:13:03.006Z,13.70
2024-02-24T14:15:34.208Z,14.38
2024-02-24T14:18:02.922Z,14.68
2024-02-24T14:20:35.633Z,15.30
2024-02-24T14:23:03.919Z,14.55
2024-02-24T14:25:35.710Z,13.98
2024-02-24T14:28:14.426Z,14.32
2024-02-24T14:30:47.813Z,14.75
2024-02-24T14:33:16.342Z,15.95
2024-02-24T14:35:44.752Z,15.40
2024-02-24T14:38:13.123Z,15.48
2024-02-24T14:40:41.469Z,14.35
2024-02-24T14:43:09.370Z,14.15
2024-02-24T14:45:37.844Z,14.45
2024-02-24T14:48:06.712Z,14.07
2024-02-24T14:50:35.500Z,15.30
2024-02-24T14:53:03.621Z,15.45
2024-02-24T14:55:31.934Z,15.10
2024-02-24T14:57:59.805Z,14.32
2024-02-24T15:00:28.662Z,14.48
2024-02-24T15:03:08.646Z,13.98
2024-02-24T15:05:39.541Z,13.82
2024-02-24T15:08:08.051Z,13.93
2024-02-24T15:10:36.631Z,13.63
2024-02-24T15:13:05.566Z,13.20
2024-02-24T15:15:34.394Z,12.93
2024-02-24T15:18:06.303Z,12.57
2024-02-24T15:20:34.718Z,13.35
2024-02-24T15:23:02.811Z,13.13
2024-02-24T15:25:31.194Z,13.52
2024-02-24T15:28:00.206Z,14.13
2024-02-24T15:30:31.037Z,13.30
2024-02-24T15:32:59.709Z,13.90
2024-02-24T15:35:29.095Z,12.88
2024-02-24T15:37:59.035Z,13.10
2024-02-24T15:40:29.530Z,13.32
2024-02-24T15:42:58.757Z,12.75
2024-02-24T15:45:27.115Z,13.25
2024-02-24T15:47:55.337Z,12.75
2024-02-24T15:50:24.564Z,13.23
2024-02-24T15:52:52.559Z,12.40
2024-02-24T15:55:20.861Z,12.40
2024-02-24T15:57:50.247Z,12.68
2024-02-24T16:00:18.417Z,12.02
2024-02-24T16:02:46.967Z,13.02
2024-02-24T16:05:18.381Z,12.95
2024-02-24T16:07:46.859Z,12.75
2024-02-24T16:10:16.574Z,12.45
2024-02-24T16:12:45.071Z,12.43
2024-02-24T16:15:13.472Z,12.27
2024-02-24T16:17:41.937Z,13.10
2024-02-24T16:20:10.450Z,12.20
2024-02-24T16:22:42.991Z,12.15
2024-02-24T16:25:14.565Z,12.70
2024-02-24T16:27:43.886Z,13.57
2024-02-24T16:30:12.845Z,13.25
2024-02-24T16:32:42.114Z,14.32
2024-02-24T16:35:10.136Z,13.95
2024-02-24T16:37:39.893Z,13.60
2024-02-24T16:40:09.457Z,13.75
2024-02-24T16:42:39.214Z,12.52
2024-02-24T16:45:08.575Z,12.10
2024-02-24T16:47:37.493Z,12.18
2024-02-24T16:50:07.379Z,13.73
2024-02-24T16:52:35.953Z,13.25
2024-02-24T16:55:05.433Z,12.60
2024-02-24T16:57:33.865Z,12.60
2024-02-24T17:00:02.268Z,12.55
2024-02-24T17:02:32.277Z,14.40
2024-02-24T17:05:00.319Z,14.13
2024-02-24T17:07:29.039Z,13.82
2024-02-24T17:09:58.300Z,14.50
2024-02-24T17:12:26.878Z,13.15
2024-02-24T17:14:55.081Z,12.82
2024-02-24T17:17:24.529Z,13.55
2024-02-24T17:19:52.645Z,13.40
2024-02-24T17:22:21.217Z,13.68
2024-02-24T17:24:49.410Z,13.20
2024-02-24T17:31:51.168Z,13.00
2024-02-24T17:34:22.356Z,13.45
2024-02-24T17:36:53.182Z,12.05
2024-02-24T17:39:22.630Z,12.27
2024-02-24T17:41:52.505Z,12.52
2024-02-24T17:44:21.097Z,11.40
2024-02-24T17:46:49.349Z,12.68
2024-02-24T17:49:18.182Z,11.63
2024-02-24T17:51:46.530Z,12.95
2024-02-24T17:54:14.679Z,11.68
2024-02-24T17:56:43.837Z,12.70
2024-02-24T17:59:13.396Z,10.85
2024-02-24T18:04:57.448Z,12.32
2024-02-24T18:07:28.258Z,12.45
2024-02-24T18:09:56.248Z,11.20
2024-02-24T18:12:25.259Z,20.98
2024-02-24T18:14:54.092Z,18.00
2024-02-24T18:17:22.922Z,11.93
2024-02-24T18:19:50.850Z,12.27
2024-02-24T18:22:19.392Z,11.93
2024-02-24T18:24:47.470Z,10.52
2024-02-24T18:27:15.927Z,10.85
2024-02-24T18:29:45.796Z,11.32
2024-02-24T18:32:14.353Z,11.50
2024-02-24T18:34:42.569Z,11.88
2024-02-24T18:37:12.273Z,12.65
2024-02-24T18:39:42.328Z,11.20
2024-02-24T18:42:10.744Z,10.70
2024-02-24T18:44:39.639Z,10.45
2024-02-24T18:47:08.335Z,10.32
2024-02-24T18:49:36.780Z,10.38
2024-02-24T18:52:07.262Z,9.93
2024-02-24T18:54:35.326Z,9.93
2024-02-24T18:57:04.794Z,9.52
2024-02-24T18:59:33.857Z,9.80
2024-02-24T19:02:02.208Z,10.05
2024-02-24T19:04:30.405Z,10.60
2024-02-24T19:06:58.612Z,9.13
2024-02-24T19:09:26.823Z,9.90
2024-02-24T19:11:55.380Z,10.40
2024-02-24T19:14:23.647Z,9.35
2024-02-24T19:16:52.146Z,9.43
2024-02-24T19:19:20.389Z,8.75
2024-02-24T19:21:48.875Z,8.60
2024-02-24T19:24:17.220Z,9.50
2024-02-24T19:26:45.677Z,8.88
2024-02-24T19:29:15.539Z,9.38
2024-02-24T19:31:43.878Z,8.80
2024-02-24T19:34:14.461Z,9.40
2024-02-24T19:36:43.008Z,8.93
2024-02-24T19:39:16.358Z,8.70
2024-02-24T19:41:47.789Z,8.40
2024-02-24T19:44:16.753Z,8.95
2024-02-24T19:46:45.129Z,8.48
2024-02-24T19:49:13.385Z,8.52
2024-02-24T19:51:41.859Z,9.07
2024-02-24T19:54:09.982Z,8.63
2024-02-24T19:56:38.363Z,8.73
2024-02-24T19:59:06.315Z,9.43
2024-02-24T20:01:34.793Z,8.43
2024-02-24T20:04:02.714Z,9.25
2024-02-24T20:06:31.392Z,9.73
2024-02-24T20:08:59.909Z,8.60
2024-02-24T20:11:28.558Z,8.45
2024-02-24T20:13:56.830Z,9.35
2024-02-24T20:16:25.576Z,8.65
2024-02-24T20:18:53.696Z,9.02
2024-02-24T20:21:22.093Z,8.50
2024-02-24T20:23:50.092Z,8.75
2024-02-24T20:26:18.994Z,8.85
2024-02-24T20:28:46.826Z,9.32
2024-02-24T20:31:15.354Z,8.63
2024-02-24T20:33:53.355Z,9.25
2024-02-24T20:36:28.821Z,9.40
2024-02-24T20:38:59.789Z,9.68
2024-02-24T20:41:30.519Z,9.85
2024-02-24T20:43:59.300Z,9.65
2024-02-24T20:46:27.615Z,8.40
2024-02-24T20:48:55.704Z,9.23
2024-02-24T20:51:24.001Z,9.10
2024-02-24T20:53:53.189Z,9.32
2024-02-24T20:56:22.923Z,8.60
2024-02-24T20:58:50.876Z,9.07
2024-02-24T21:01:19.157Z,9.60
2024-02-24T21:03:47.301Z,10.02
2024-02-24T21:06:15.792Z,10.63
2024-02-24T21:08:44.441Z,10.23
2024-02-24T21:11:12.709Z,10.82
2024-02-24T21:13:40.812Z,10.60
2024-02-24T21:16:09.162Z,10.27
2024-02-24T21:18:37.375Z,11.00
2024-02-24T21:21:06.152Z,10.63
2024-02-24T21:23:34.495Z,10.75
2024-02-24T21:26:07.310Z,11.30
2024-02-24T21:28:35.143Z,10.07
2024-02-24T21:31:03.876Z,10.60
2024-02-24T21:33:32.285Z,10.35
2024-02-24T21:36:00.700Z,10.85
2024-02-24T21:38:31.573Z,11.02
2024-02-24T21:41:00.322Z,10.70
2024-02-24T21:43:28.371Z,10.93
2024-02-24T21:45:56.690Z,10.52
2024-02-24T21:48:24.724Z,11.40
2024-02-24T21:50:53.384Z,11.05
2024-02-24T21:53:21.268Z,11.52
2024-02-24T21:55:49.675Z,11.57
2024-02-24T21:58:18.557Z,10.95
2024-02-24T22:00:49.754Z,11.50
2024-02-24T22:03:19.203Z,11.32
2024-02-24T22:05:48.070Z,11.75
2024-02-24T22:08:16.288Z,11.70
2024-02-24T22:10:44.699Z,11.68
2024-02-24T22:13:13.404Z,11.80
2024-02-24T22:15:41.848Z,11.27
2024-02-24T22:18:09.958Z,12.05
2024-02-24T22:20:38.544Z,11.23
2024-02-24T22:23:06.463Z,10.93
2024-02-24T22:25:34.974Z,11.60
2024-02-24T22:28:02.877Z,11.32
2024-02-24T22:30:31.468Z,10.95
2024-02-24T22:32:59.629Z,11.68
2024-02-24T22:35:28.201Z,9.93
2024-02-24T22:37:56.214Z,10.77
2024-02-24T22:40:24.703Z,10.55
2024-02-24T22:42:52.740Z,10.55
2024-02-24T22:45:21.332Z,11.23
2024-02-24T22:47:49.780Z,10.85
2024-02-24T22:50:18.496Z,11.02
2024-02-24T22:52:46.449Z,11.75
2024-02-24T22:55:14.922Z,11.40
2024-02-24T22:57:43.063Z,11.88
2024-02-24T23:00:15.018Z,11.65
2024-02-24T23:02:43.757Z,10.73
2024-02-24T23:05:12.036Z,11.50
2024-02-24T23:07:40.158Z,10.30
2024-02-24T23:10:10.927Z,10.30
2024-02-24T23:12:40.176Z,11.05
2024-02-24T23:15:09.095Z,10.52
2024-02-24T23:17:39.722Z,10.70
2024-02-24T23:20:08.804Z,9.75
2024-02-24T23:22:36.821Z,10.75
2024-02-24T23:25:05.549Z,10.48
2024-02-24T23:27:33.451Z,10.15
2024-02-24T23:30:02.151Z,10.95
2024-02-24T23:32:31.772Z,10.73
2024-02-24T23:35:00.161Z,11.45
2024-02-24T23:37:28.335Z,11.98
2024-02-24T23:39:56.676Z,11.68
2024-02-24T23:42:24.541Z,12.07
2024-02-24T23:44:53.102Z,11.38
2024-02-24T23:47:21.705Z,11.70
2024-02-24T23:49:49.863Z,11.55
2024-02-24T23:52:18.483Z,11.00
2024-02-24T23:54:46.677Z,11.32
2024-02-24T23:57:15.331Z,11.57
2024-02-24T23:59:43.343Z,11.73
